IRA964T FEFF-FZAB
Flight info
| Callsign | IRA964T |
|---|---|
| Flight time | 1h 30m |
| Altitude | 36000 |
| Route | MPK UA410 BZ |
| Aircraft | B738/M-SDE2E3FGHIRWXY/LB1 |
Departure
| Time | 2026-04-25 17:03 |
|---|---|
| Airport | Bangui M'Poko International Airport (FEFF) |
Arrival
| Time | 2026-04-25 18:34 |
|---|---|
| Airport | Ndolo Airport (FZAB) |
| Time | Latitude | Longitude | Altitude | Speed | Heading |
|---|---|---|---|---|---|
| 2026-04-25 16:49 | 4.40506 | 18.52193 | 1205 ft | 0 kts | 81° |
| 2026-04-25 16:58 | 4.40502 | 18.52178 | 1204 ft | 4 kts | 35° |
| 2026-04-25 16:58 | 4.40481 | 18.52177 | 1204 ft | 4 kts | 343° |
| 2026-04-25 16:58 | 4.40476 | 18.52178 | 1204 ft | 0 kts | 342° |
| 2026-04-25 17:01 | 4.40478 | 18.52178 | 1204 ft | 1 kts | 342° |
| 2026-04-25 17:01 | 4.40491 | 18.52173 | 1204 ft | 3 kts | 342° |
| 2026-04-25 17:01 | 4.40510 | 18.52159 | 1204 ft | 4 kts | 301° |
| 2026-04-25 17:01 | 4.40515 | 18.52123 | 1204 ft | 7 kts | 259° |
| 2026-04-25 17:02 | 4.40504 | 18.52066 | 1203 ft | 10 kts | 259° |
| 2026-04-25 17:02 | 4.40489 | 18.51986 | 1201 ft | 14 kts | 259° |
| 2026-04-25 17:02 | 4.40456 | 18.51876 | 1200 ft | 21 kts | 247° |
| 2026-04-25 17:02 | 4.40413 | 18.51836 | 1201 ft | 30 kts | 199° |
| 2026-04-25 17:03 | 4.39403 | 18.52081 | 1196 ft | 149 kts | 166° |
| 2026-04-25 17:03 | 4.38248 | 18.52375 | 1428 ft | 191 kts | 165° |
| 2026-04-25 17:03 | 4.36869 | 18.52752 | 1862 ft | 217 kts | 164° |
| 2026-04-25 17:03 | 4.35300 | 18.52915 | 2264 ft | 242 kts | 192° |
| 2026-04-25 17:04 | 4.33891 | 18.52270 | 2843 ft | 252 kts | 211° |
| 2026-04-25 17:04 | 4.32357 | 18.51385 | 3705 ft | 256 kts | 209° |
| 2026-04-25 17:04 | 4.30776 | 18.50540 | 4593 ft | 259 kts | 207° |
| 2026-04-25 17:04 | 4.29153 | 18.49737 | 5439 ft | 262 kts | 205° |
| 2026-04-25 17:05 | 4.27488 | 18.48965 | 6274 ft | 265 kts | 204° |
| 2026-04-25 17:05 | 4.24055 | 18.47485 | 7911 ft | 272 kts | 202° |
| 2026-04-25 17:05 | 4.22295 | 18.46764 | 8695 ft | 275 kts | 202° |
| 2026-04-25 17:06 | 4.20506 | 18.46048 | 9459 ft | 279 kts | 201° |
| 2026-04-25 17:06 | 4.18688 | 18.45332 | 9869 ft | 281 kts | 201° |
| 2026-04-25 17:06 | 4.16854 | 18.44618 | 9997 ft | 286 kts | 201° |
| 2026-04-25 17:06 | 4.14982 | 18.43896 | 10375 ft | 290 kts | 201° |
| 2026-04-25 17:07 | 4.13105 | 18.43177 | 11257 ft | 287 kts | 201° |
| 2026-04-25 17:07 | 4.11868 | 18.42704 | 11803 ft | 288 kts | 201° |
| 2026-04-25 17:07 | 4.09345 | 18.41744 | 12756 ft | 293 kts | 201° |
| 2026-04-25 17:07 | 4.07430 | 18.41016 | 13472 ft | 296 kts | 201° |
| 2026-04-25 17:08 | 4.06150 | 18.40531 | 13937 ft | 298 kts | 201° |
| 2026-04-25 17:08 | 4.04201 | 18.39792 | 14632 ft | 301 kts | 200° |
| 2026-04-25 17:08 | 4.02230 | 18.39046 | 15315 ft | 304 kts | 200° |
| 2026-04-25 17:08 | 4.00242 | 18.38293 | 15979 ft | 307 kts | 200° |
| 2026-04-25 17:09 | 3.98209 | 18.37524 | 16390 ft | 321 kts | 200° |
| 2026-04-25 17:09 | 3.96052 | 18.36708 | 16540 ft | 341 kts | 200° |
| 2026-04-25 17:09 | 3.93780 | 18.35848 | 16690 ft | 360 kts | 200° |
| 2026-04-25 17:09 | 3.91376 | 18.34939 | 16830 ft | 378 kts | 200° |
| 2026-04-25 17:10 | 3.88857 | 18.33987 | 16990 ft | 394 kts | 200° |
| 2026-04-25 17:10 | 3.86262 | 18.33005 | 17400 ft | 402 kts | 200° |
| 2026-04-25 17:10 | 3.83639 | 18.32014 | 17967 ft | 404 kts | 200° |
| 2026-04-25 17:10 | 3.81002 | 18.31016 | 18549 ft | 406 kts | 200° |
| 2026-04-25 17:11 | 3.78348 | 18.30013 | 19075 ft | 409 kts | 200° |
| 2026-04-25 17:11 | 3.75673 | 18.29002 | 19581 ft | 413 kts | 200° |
| 2026-04-25 17:11 | 3.72964 | 18.27978 | 19945 ft | 420 kts | 200° |
| 2026-04-25 17:11 | 3.70214 | 18.26939 | 20337 ft | 425 kts | 200° |
| 2026-04-25 17:12 | 3.67445 | 18.25892 | 20809 ft | 427 kts | 200° |
| 2026-04-25 17:12 | 3.64659 | 18.24840 | 21297 ft | 429 kts | 200° |
| 2026-04-25 17:12 | 3.61862 | 18.23782 | 21732 ft | 432 kts | 200° |
| 2026-04-25 17:12 | 3.59041 | 18.22716 | 22143 ft | 435 kts | 200° |
| 2026-04-25 17:13 | 3.56203 | 18.21644 | 22533 ft | 437 kts | 200° |
| 2026-04-25 17:13 | 3.54313 | 18.20930 | 22802 ft | 439 kts | 200° |
| 2026-04-25 17:13 | 3.50476 | 18.19481 | 23327 ft | 442 kts | 200° |
| 2026-04-25 17:13 | 3.47580 | 18.18387 | 23600 ft | 448 kts | 200° |
| 2026-04-25 17:14 | 3.44646 | 18.17278 | 23814 ft | 453 kts | 200° |
| 2026-04-25 17:14 | 3.41693 | 18.16163 | 24011 ft | 456 kts | 200° |
| 2026-04-25 17:14 | 3.38720 | 18.15040 | 23997 ft | 457 kts | 200° |
| 2026-04-25 17:14 | 3.35747 | 18.13917 | 23998 ft | 455 kts | 200° |
| 2026-04-25 17:15 | 3.32795 | 18.12802 | 23996 ft | 453 kts | 200° |
| 2026-04-25 17:15 | 3.29848 | 18.11689 | 24009 ft | 453 kts | 200° |
| 2026-04-25 17:15 | 3.26895 | 18.10574 | 24010 ft | 454 kts | 200° |
| 2026-04-25 17:15 | 3.23939 | 18.09458 | 24006 ft | 454 kts | 200° |
| 2026-04-25 17:16 | 3.20981 | 18.08341 | 24002 ft | 455 kts | 200° |
| 2026-04-25 17:16 | 3.18017 | 18.07222 | 24001 ft | 455 kts | 200° |
| 2026-04-25 17:16 | 3.15051 | 18.06102 | 24001 ft | 455 kts | 200° |
| 2026-04-25 17:16 | 3.12089 | 18.04984 | 24001 ft | 455 kts | 200° |
| 2026-04-25 17:17 | 3.09129 | 18.03864 | 24001 ft | 455 kts | 201° |
| 2026-04-25 17:17 | 3.06168 | 18.02741 | 24001 ft | 455 kts | 201° |
| 2026-04-25 17:17 | 3.03206 | 18.01616 | 24001 ft | 455 kts | 201° |
| 2026-04-25 17:17 | 3.00252 | 18.00494 | 24001 ft | 454 kts | 201° |
| 2026-04-25 17:18 | 2.97297 | 17.99372 | 24001 ft | 454 kts | 201° |
| 2026-04-25 17:18 | 2.94342 | 17.98250 | 24001 ft | 454 kts | 201° |
| 2026-04-25 17:18 | 2.91393 | 17.97131 | 24001 ft | 454 kts | 201° |
| 2026-04-25 17:18 | 2.88445 | 17.96012 | 24001 ft | 453 kts | 201° |
| 2026-04-25 17:19 | 2.85493 | 17.94892 | 24002 ft | 453 kts | 201° |
| 2026-04-25 17:19 | 2.82582 | 17.93787 | 24001 ft | 453 kts | 201° |
| 2026-04-25 17:19 | 2.79635 | 17.92669 | 24001 ft | 453 kts | 201° |
| 2026-04-25 17:19 | 2.76689 | 17.91551 | 24001 ft | 453 kts | 201° |
| 2026-04-25 17:20 | 2.73745 | 17.90434 | 24002 ft | 453 kts | 201° |
| 2026-04-25 17:20 | 2.70755 | 17.89300 | 24002 ft | 453 kts | 201° |
| 2026-04-25 17:20 | 2.67851 | 17.88198 | 24001 ft | 453 kts | 201° |
| 2026-04-25 17:20 | 2.64905 | 17.87081 | 24001 ft | 453 kts | 201° |
| 2026-04-25 17:21 | 2.61956 | 17.85962 | 24002 ft | 453 kts | 201° |
| 2026-04-25 17:21 | 2.59010 | 17.84845 | 24002 ft | 453 kts | 201° |
| 2026-04-25 17:21 | 2.56058 | 17.83725 | 24001 ft | 453 kts | 201° |
| 2026-04-25 17:21 | 2.53114 | 17.82609 | 24002 ft | 453 kts | 201° |
| 2026-04-25 17:22 | 2.50163 | 17.81489 | 24001 ft | 453 kts | 201° |
| 2026-04-25 17:22 | 2.48171 | 17.80734 | 24001 ft | 453 kts | 201° |
| 2026-04-25 17:22 | 2.44261 | 17.79251 | 24002 ft | 453 kts | 201° |
| 2026-04-25 17:22 | 2.41314 | 17.78133 | 24002 ft | 454 kts | 201° |
| 2026-04-25 17:23 | 2.38363 | 17.77014 | 24001 ft | 454 kts | 201° |
| 2026-04-25 17:23 | 2.35411 | 17.75895 | 24001 ft | 454 kts | 201° |
| 2026-04-25 17:23 | 2.32459 | 17.74778 | 24001 ft | 454 kts | 200° |
| 2026-04-25 17:23 | 2.29507 | 17.73662 | 24002 ft | 454 kts | 200° |
| 2026-04-25 17:24 | 2.26554 | 17.72547 | 24002 ft | 454 kts | 200° |
| 2026-04-25 17:24 | 2.23603 | 17.71432 | 24001 ft | 454 kts | 200° |
| 2026-04-25 17:24 | 2.20651 | 17.70316 | 24001 ft | 454 kts | 200° |
| 2026-04-25 17:24 | 2.17699 | 17.69200 | 24001 ft | 454 kts | 200° |
| 2026-04-25 17:25 | 2.14752 | 17.68087 | 24001 ft | 454 kts | 200° |
| 2026-04-25 17:25 | 2.11797 | 17.66969 | 24001 ft | 453 kts | 200° |
| 2026-04-25 17:25 | 2.08846 | 17.65853 | 24001 ft | 453 kts | 200° |
| 2026-04-25 17:25 | 2.05895 | 17.64737 | 24002 ft | 453 kts | 200° |
| 2026-04-25 17:26 | 2.02944 | 17.63622 | 24001 ft | 453 kts | 200° |
| 2026-04-25 17:26 | 1.99994 | 17.62506 | 24001 ft | 453 kts | 200° |
| 2026-04-25 17:26 | 1.97043 | 17.61390 | 24001 ft | 453 kts | 200° |
| 2026-04-25 17:26 | 1.94094 | 17.60275 | 24001 ft | 453 kts | 200° |
| 2026-04-25 17:27 | 1.91144 | 17.59160 | 24001 ft | 453 kts | 200° |
| 2026-04-25 17:27 | 1.88193 | 17.58044 | 24001 ft | 453 kts | 200° |
| 2026-04-25 17:27 | 1.85244 | 17.56929 | 24001 ft | 453 kts | 200° |
| 2026-04-25 17:27 | 1.84243 | 17.56551 | 24001 ft | 453 kts | 200° |
| 2026-04-25 17:28 | 1.79340 | 17.54697 | 24001 ft | 453 kts | 200° |
| 2026-04-25 17:28 | 1.76390 | 17.53582 | 24001 ft | 453 kts | 200° |
| 2026-04-25 17:28 | 1.73440 | 17.52466 | 24001 ft | 453 kts | 200° |
| 2026-04-25 17:28 | 1.70496 | 17.51353 | 24001 ft | 453 kts | 200° |
| 2026-04-25 17:29 | 1.67541 | 17.50236 | 24001 ft | 453 kts | 200° |
| 2026-04-25 17:29 | 1.64591 | 17.49121 | 24001 ft | 453 kts | 200° |
| 2026-04-25 17:29 | 1.61640 | 17.48006 | 24001 ft | 453 kts | 200° |
| 2026-04-25 17:29 | 1.58733 | 17.46907 | 24001 ft | 453 kts | 200° |
| 2026-04-25 17:30 | 1.55780 | 17.45792 | 24001 ft | 453 kts | 200° |
| 2026-04-25 17:30 | 1.52831 | 17.44679 | 24002 ft | 453 kts | 200° |
| 2026-04-25 17:30 | 1.49881 | 17.43565 | 24002 ft | 453 kts | 200° |
| 2026-04-25 17:30 | 1.46933 | 17.42451 | 24001 ft | 453 kts | 200° |
| 2026-04-25 17:31 | 1.43980 | 17.41336 | 24001 ft | 453 kts | 200° |
| 2026-04-25 17:31 | 1.41030 | 17.40221 | 24001 ft | 453 kts | 200° |
| 2026-04-25 17:31 | 1.38081 | 17.39108 | 24001 ft | 453 kts | 200° |
| 2026-04-25 17:31 | 1.35130 | 17.37993 | 24002 ft | 453 kts | 200° |
| 2026-04-25 17:32 | 1.32183 | 17.36880 | 24001 ft | 453 kts | 200° |
| 2026-04-25 17:32 | 1.29229 | 17.35764 | 24001 ft | 453 kts | 200° |
| 2026-04-25 17:32 | 1.26278 | 17.34649 | 24001 ft | 453 kts | 200° |
| 2026-04-25 17:32 | 1.23327 | 17.33535 | 24001 ft | 453 kts | 200° |
| 2026-04-25 17:33 | 1.20382 | 17.32422 | 24001 ft | 453 kts | 200° |
| 2026-04-25 17:33 | 1.17431 | 17.31308 | 24002 ft | 453 kts | 200° |
| 2026-04-25 17:33 | 1.14480 | 17.30193 | 24001 ft | 453 kts | 200° |
| 2026-04-25 17:33 | 1.11529 | 17.29078 | 24001 ft | 453 kts | 200° |
| 2026-04-25 17:34 | 1.08580 | 17.27965 | 24001 ft | 453 kts | 200° |
| 2026-04-25 17:34 | 1.05628 | 17.26850 | 24002 ft | 453 kts | 200° |
| 2026-04-25 17:34 | 1.02675 | 17.25735 | 24001 ft | 453 kts | 200° |
| 2026-04-25 17:34 | 0.99728 | 17.24622 | 24001 ft | 453 kts | 200° |
| 2026-04-25 17:35 | 0.96778 | 17.23508 | 24001 ft | 453 kts | 200° |
| 2026-04-25 17:35 | 0.93827 | 17.22393 | 24002 ft | 453 kts | 200° |
| 2026-04-25 17:35 | 0.90877 | 17.21279 | 24001 ft | 453 kts | 200° |
| 2026-04-25 17:35 | 0.87927 | 17.20165 | 24001 ft | 453 kts | 200° |
| 2026-04-25 17:36 | 0.84978 | 17.19051 | 24001 ft | 453 kts | 200° |
| 2026-04-25 17:36 | 0.82028 | 17.17938 | 24002 ft | 453 kts | 200° |
| 2026-04-25 17:36 | 0.79078 | 17.16823 | 24001 ft | 453 kts | 200° |
| 2026-04-25 17:36 | 0.76130 | 17.15710 | 24001 ft | 453 kts | 200° |
| 2026-04-25 17:37 | 0.73176 | 17.14595 | 24001 ft | 453 kts | 200° |
| 2026-04-25 17:37 | 0.70227 | 17.13481 | 24001 ft | 453 kts | 200° |
| 2026-04-25 17:37 | 0.67276 | 17.12367 | 24002 ft | 453 kts | 200° |
| 2026-04-25 17:37 | 0.64330 | 17.11254 | 24001 ft | 453 kts | 200° |
| 2026-04-25 17:38 | 0.61380 | 17.10140 | 24001 ft | 453 kts | 200° |
| 2026-04-25 17:38 | 0.60424 | 17.09779 | 24001 ft | 453 kts | 200° |
| 2026-04-25 17:38 | 0.55480 | 17.07913 | 24002 ft | 453 kts | 200° |
| 2026-04-25 17:38 | 0.52568 | 17.06815 | 24001 ft | 453 kts | 200° |
| 2026-04-25 17:39 | 0.49582 | 17.05689 | 24001 ft | 453 kts | 200° |
| 2026-04-25 17:39 | 0.46667 | 17.04591 | 24001 ft | 453 kts | 200° |
| 2026-04-25 17:39 | 0.43678 | 17.03463 | 24001 ft | 453 kts | 200° |
| 2026-04-25 17:39 | 0.40769 | 17.02366 | 24002 ft | 453 kts | 200° |
| 2026-04-25 17:40 | 0.37822 | 17.01255 | 24002 ft | 453 kts | 200° |
| 2026-04-25 17:40 | 0.34870 | 17.00141 | 24002 ft | 453 kts | 200° |
| 2026-04-25 17:40 | 0.31919 | 16.99028 | 24001 ft | 453 kts | 200° |
| 2026-04-25 17:40 | 0.28970 | 16.97915 | 24001 ft | 453 kts | 200° |
| 2026-04-25 17:41 | 0.26015 | 16.96801 | 24001 ft | 453 kts | 200° |
| 2026-04-25 17:41 | 0.23068 | 16.95689 | 24001 ft | 453 kts | 200° |
| 2026-04-25 17:41 | 0.20113 | 16.94575 | 24001 ft | 453 kts | 200° |
| 2026-04-25 17:41 | 0.17166 | 16.93463 | 24001 ft | 453 kts | 200° |
| 2026-04-25 17:42 | 0.14217 | 16.92350 | 24001 ft | 453 kts | 200° |
| 2026-04-25 17:42 | 0.11264 | 16.91237 | 24002 ft | 453 kts | 200° |
| 2026-04-25 17:42 | 0.08315 | 16.90124 | 24001 ft | 453 kts | 200° |
| 2026-04-25 17:42 | 0.05365 | 16.89011 | 24001 ft | 453 kts | 200° |
| 2026-04-25 17:43 | 0.02413 | 16.87898 | 24001 ft | 453 kts | 200° |
| 2026-04-25 17:43 | -0.00538 | 16.86785 | 24001 ft | 453 kts | 200° |
| 2026-04-25 17:43 | -0.03484 | 16.85674 | 24001 ft | 453 kts | 200° |
| 2026-04-25 17:43 | -0.06437 | 16.84560 | 24001 ft | 453 kts | 200° |
| 2026-04-25 17:44 | -0.09389 | 16.83446 | 24001 ft | 453 kts | 200° |
| 2026-04-25 17:44 | -0.12335 | 16.82335 | 24002 ft | 453 kts | 200° |
| 2026-04-25 17:44 | -0.15285 | 16.81222 | 24001 ft | 453 kts | 200° |
| 2026-04-25 17:44 | -0.18200 | 16.80123 | 24001 ft | 453 kts | 200° |
| 2026-04-25 17:45 | -0.20192 | 16.79371 | 24001 ft | 453 kts | 200° |
| 2026-04-25 17:45 | -0.22145 | 16.78634 | 24001 ft | 453 kts | 200° |
| 2026-04-25 17:45 | -0.27047 | 16.76785 | 24001 ft | 453 kts | 200° |
| 2026-04-25 17:45 | -0.29997 | 16.75672 | 24001 ft | 453 kts | 200° |
| 2026-04-25 17:46 | -0.32945 | 16.74560 | 24001 ft | 453 kts | 200° |
| 2026-04-25 17:46 | -0.35898 | 16.73446 | 24001 ft | 453 kts | 200° |
| 2026-04-25 17:46 | -0.38847 | 16.72334 | 24002 ft | 453 kts | 200° |
| 2026-04-25 17:46 | -0.41799 | 16.71220 | 24001 ft | 453 kts | 200° |
| 2026-04-25 17:47 | -0.44746 | 16.70108 | 24001 ft | 453 kts | 200° |
| 2026-04-25 17:47 | -0.47700 | 16.68993 | 24001 ft | 453 kts | 200° |
| 2026-04-25 17:47 | -0.50647 | 16.67881 | 24001 ft | 453 kts | 200° |
| 2026-04-25 17:47 | -0.53598 | 16.66768 | 24001 ft | 453 kts | 200° |
| 2026-04-25 17:48 | -0.59496 | 16.64542 | 24001 ft | 453 kts | 200° |
| 2026-04-25 17:48 | -0.62446 | 16.63429 | 24001 ft | 453 kts | 200° |
| 2026-04-25 17:48 | -0.65395 | 16.62315 | 24001 ft | 453 kts | 200° |
| 2026-04-25 17:49 | -0.68345 | 16.61201 | 24001 ft | 453 kts | 200° |
| 2026-04-25 17:49 | -0.71293 | 16.60087 | 24001 ft | 453 kts | 200° |
| 2026-04-25 17:49 | -0.74238 | 16.58974 | 24001 ft | 453 kts | 200° |
| 2026-04-25 17:49 | -0.77193 | 16.57858 | 24001 ft | 453 kts | 200° |
| 2026-04-25 17:50 | -0.80139 | 16.56745 | 24001 ft | 453 kts | 200° |
| 2026-04-25 17:50 | -0.83089 | 16.55631 | 24001 ft | 453 kts | 200° |
| 2026-04-25 17:50 | -0.86039 | 16.54516 | 24002 ft | 453 kts | 200° |
| 2026-04-25 17:50 | -0.88980 | 16.53405 | 24001 ft | 453 kts | 200° |
| 2026-04-25 17:51 | -0.91933 | 16.52289 | 24001 ft | 453 kts | 200° |
| 2026-04-25 17:51 | -0.94883 | 16.51175 | 24001 ft | 453 kts | 200° |
| 2026-04-25 17:51 | -0.97831 | 16.50061 | 24001 ft | 453 kts | 200° |
| 2026-04-25 17:51 | -1.00777 | 16.48948 | 24002 ft | 453 kts | 200° |
| 2026-04-25 17:52 | -1.03732 | 16.47832 | 24002 ft | 453 kts | 200° |
| 2026-04-25 17:52 | -1.04689 | 16.47470 | 24001 ft | 453 kts | 200° |
| 2026-04-25 17:52 | -1.09626 | 16.45604 | 24001 ft | 453 kts | 200° |
| 2026-04-25 17:52 | -1.12579 | 16.44489 | 24001 ft | 453 kts | 200° |
| 2026-04-25 17:53 | -1.15525 | 16.43376 | 24001 ft | 453 kts | 200° |
| 2026-04-25 17:53 | -1.18470 | 16.42262 | 24001 ft | 453 kts | 200° |
| 2026-04-25 17:53 | -1.21386 | 16.41161 | 24001 ft | 453 kts | 200° |
| 2026-04-25 17:53 | -1.24334 | 16.40047 | 24001 ft | 453 kts | 200° |
| 2026-04-25 17:54 | -1.27323 | 16.38917 | 24001 ft | 453 kts | 200° |
| 2026-04-25 17:54 | -1.30274 | 16.37802 | 24002 ft | 453 kts | 200° |
| 2026-04-25 17:54 | -1.33182 | 16.36703 | 24001 ft | 453 kts | 200° |
| 2026-04-25 17:54 | -1.35177 | 16.35949 | 24001 ft | 453 kts | 200° |
| 2026-04-25 17:55 | -1.39082 | 16.34473 | 24001 ft | 453 kts | 200° |
| 2026-04-25 17:55 | -1.42027 | 16.33360 | 24001 ft | 453 kts | 200° |
| 2026-04-25 17:55 | -1.44976 | 16.32245 | 24001 ft | 453 kts | 200° |
| 2026-04-25 17:55 | -1.47924 | 16.31131 | 24001 ft | 453 kts | 200° |
| 2026-04-25 17:56 | -1.50875 | 16.30016 | 24002 ft | 453 kts | 200° |
| 2026-04-25 17:56 | -1.53822 | 16.28901 | 24002 ft | 453 kts | 200° |
| 2026-04-25 17:56 | -1.55817 | 16.28147 | 24001 ft | 453 kts | 200° |
| 2026-04-25 17:56 | -1.58762 | 16.27034 | 24001 ft | 453 kts | 200° |
| 2026-04-25 17:57 | -1.61710 | 16.25920 | 24001 ft | 453 kts | 200° |
| 2026-04-25 17:57 | -1.64659 | 16.24805 | 24001 ft | 453 kts | 200° |
| 2026-04-25 17:57 | -1.67608 | 16.23690 | 24002 ft | 453 kts | 200° |
| 2026-04-25 17:57 | -1.69562 | 16.22951 | 24001 ft | 453 kts | 200° |
| 2026-04-25 17:58 | -1.73502 | 16.21461 | 24001 ft | 453 kts | 200° |
| 2026-04-25 17:58 | -1.76415 | 16.20360 | 24001 ft | 453 kts | 200° |
| 2026-04-25 17:58 | -1.79402 | 16.19230 | 24002 ft | 453 kts | 200° |
| 2026-04-25 17:58 | -1.82349 | 16.18116 | 24001 ft | 453 kts | 200° |
| 2026-04-25 17:59 | -1.85295 | 16.17002 | 24001 ft | 453 kts | 200° |
| 2026-04-25 17:59 | -1.88246 | 16.15886 | 24001 ft | 453 kts | 201° |
| 2026-04-25 17:59 | -1.91194 | 16.14770 | 24001 ft | 453 kts | 200° |
| 2026-04-25 17:59 | -1.94141 | 16.13656 | 24001 ft | 453 kts | 200° |
| 2026-04-25 18:00 | -1.96095 | 16.12917 | 24002 ft | 453 kts | 200° |
| 2026-04-25 18:00 | -2.00004 | 16.11438 | 24002 ft | 453 kts | 200° |
| 2026-04-25 18:00 | -2.02953 | 16.10324 | 24001 ft | 453 kts | 200° |
| 2026-04-25 18:00 | -2.05904 | 16.09208 | 24002 ft | 454 kts | 200° |
| 2026-04-25 18:01 | -2.08854 | 16.08092 | 24001 ft | 454 kts | 201° |
| 2026-04-25 18:01 | -2.11807 | 16.06974 | 24001 ft | 454 kts | 201° |
| 2026-04-25 18:01 | -2.14760 | 16.05857 | 24002 ft | 454 kts | 201° |
| 2026-04-25 18:01 | -2.17712 | 16.04740 | 24001 ft | 454 kts | 201° |
| 2026-04-25 18:02 | -2.20661 | 16.03624 | 24001 ft | 454 kts | 201° |
| 2026-04-25 18:02 | -2.23616 | 16.02505 | 24002 ft | 454 kts | 201° |
| 2026-04-25 18:02 | -2.26568 | 16.01388 | 24002 ft | 454 kts | 201° |
| 2026-04-25 18:02 | -2.29523 | 16.00269 | 24001 ft | 454 kts | 201° |
| 2026-04-25 18:03 | -2.32474 | 15.99153 | 24000 ft | 454 kts | 201° |
| 2026-04-25 18:03 | -2.35426 | 15.98035 | 24002 ft | 454 kts | 201° |
| 2026-04-25 18:03 | -2.38376 | 15.96918 | 24002 ft | 454 kts | 201° |
| 2026-04-25 18:03 | -2.41329 | 15.95800 | 24001 ft | 454 kts | 201° |
| 2026-04-25 18:04 | -2.44282 | 15.94682 | 24001 ft | 454 kts | 201° |
| 2026-04-25 18:04 | -2.47235 | 15.93564 | 24001 ft | 454 kts | 201° |
| 2026-04-25 18:04 | -2.50189 | 15.92446 | 24001 ft | 454 kts | 201° |
| 2026-04-25 18:04 | -2.53144 | 15.91327 | 24002 ft | 454 kts | 201° |
| 2026-04-25 18:05 | -2.55101 | 15.90586 | 24002 ft | 454 kts | 201° |
| 2026-04-25 18:05 | -2.59059 | 15.89087 | 24002 ft | 455 kts | 201° |
| 2026-04-25 18:05 | -2.61979 | 15.87981 | 24002 ft | 455 kts | 201° |
| 2026-04-25 18:05 | -2.64936 | 15.86861 | 24002 ft | 455 kts | 201° |
| 2026-04-25 18:06 | -2.67899 | 15.85739 | 24001 ft | 455 kts | 201° |
| 2026-04-25 18:06 | -2.70859 | 15.84618 | 24001 ft | 455 kts | 201° |
| 2026-04-25 18:06 | -2.73818 | 15.83497 | 24001 ft | 455 kts | 201° |
| 2026-04-25 18:06 | -2.76777 | 15.82376 | 24001 ft | 455 kts | 201° |
| 2026-04-25 18:07 | -2.79737 | 15.81255 | 24002 ft | 455 kts | 201° |
| 2026-04-25 18:07 | -2.82695 | 15.80134 | 24002 ft | 454 kts | 201° |
| 2026-04-25 18:07 | -2.85649 | 15.79014 | 24001 ft | 454 kts | 201° |
| 2026-04-25 18:07 | -2.88603 | 15.77895 | 23998 ft | 454 kts | 201° |
| 2026-04-25 18:08 | -2.91558 | 15.76775 | 24002 ft | 454 kts | 201° |
| 2026-04-25 18:08 | -2.94510 | 15.75657 | 24001 ft | 454 kts | 201° |
| 2026-04-25 18:08 | -2.97461 | 15.74538 | 23999 ft | 454 kts | 201° |
| 2026-04-25 18:08 | -3.00415 | 15.73418 | 24002 ft | 454 kts | 201° |
| 2026-04-25 18:09 | -3.03371 | 15.72298 | 24003 ft | 454 kts | 201° |
| 2026-04-25 18:09 | -3.06325 | 15.71178 | 24002 ft | 455 kts | 201° |
| 2026-04-25 18:09 | -3.09286 | 15.70058 | 24001 ft | 455 kts | 200° |
| 2026-04-25 18:09 | -3.11287 | 15.69301 | 24002 ft | 455 kts | 200° |
| 2026-04-25 18:10 | -3.15211 | 15.67818 | 24002 ft | 455 kts | 200° |
| 2026-04-25 18:10 | -3.18177 | 15.66696 | 24002 ft | 456 kts | 200° |
| 2026-04-25 18:10 | -3.21144 | 15.65575 | 24001 ft | 456 kts | 200° |
| 2026-04-25 18:10 | -3.24109 | 15.64453 | 24001 ft | 456 kts | 200° |
| 2026-04-25 18:11 | -3.27076 | 15.63330 | 24001 ft | 456 kts | 200° |
| 2026-04-25 18:11 | -3.30044 | 15.62207 | 24001 ft | 456 kts | 200° |
| 2026-04-25 18:11 | -3.33010 | 15.61085 | 24002 ft | 456 kts | 200° |
| 2026-04-25 18:11 | -3.35977 | 15.59962 | 24001 ft | 456 kts | 200° |
| 2026-04-25 18:12 | -3.38943 | 15.58839 | 24001 ft | 456 kts | 200° |
| 2026-04-25 18:12 | -3.41909 | 15.57717 | 24001 ft | 456 kts | 200° |
| 2026-04-25 18:12 | -3.44876 | 15.56593 | 24001 ft | 456 kts | 200° |
| 2026-04-25 18:12 | -3.47836 | 15.55473 | 23996 ft | 451 kts | 200° |
| 2026-04-25 18:13 | -3.50672 | 15.54401 | 23931 ft | 421 kts | 200° |
| 2026-04-25 18:13 | -3.53410 | 15.53622 | 23747 ft | 399 kts | 188° |
| 2026-04-25 18:13 | -3.56132 | 15.53592 | 23326 ft | 392 kts | 170° |
| 2026-04-25 18:14 | -3.60805 | 15.56111 | 22338 ft | 385 kts | 131° |
| 2026-04-25 18:14 | -3.62218 | 15.58361 | 21839 ft | 382 kts | 111° |
| 2026-04-25 18:14 | -3.62780 | 15.60939 | 21350 ft | 380 kts | 91° |
| 2026-04-25 18:14 | -3.62429 | 15.63533 | 20855 ft | 377 kts | 71° |
| 2026-04-25 18:15 | -3.61217 | 15.65832 | 20353 ft | 374 kts | 51° |
| 2026-04-25 18:15 | -3.59299 | 15.67552 | 19854 ft | 370 kts | 30° |
| 2026-04-25 18:15 | -3.56922 | 15.68484 | 19357 ft | 367 kts | 10° |
| 2026-04-25 18:15 | -3.54389 | 15.68517 | 18858 ft | 364 kts | 349° |
| 2026-04-25 18:16 | -3.52035 | 15.67656 | 18360 ft | 361 kts | 328° |
| 2026-04-25 18:16 | -3.50151 | 15.66024 | 17771 ft | 359 kts | 307° |
| 2026-04-25 18:16 | -3.48695 | 15.61420 | 16519 ft | 349 kts | 265° |
| 2026-04-25 18:17 | -3.49249 | 15.59089 | 15886 ft | 344 kts | 245° |
| 2026-04-25 18:17 | -3.50544 | 15.57104 | 15278 ft | 339 kts | 227° |
| 2026-04-25 18:17 | -3.52321 | 15.55641 | 14654 ft | 335 kts | 209° |
| 2026-04-25 18:17 | -3.54410 | 15.54642 | 14117 ft | 329 kts | 203° |
| 2026-04-25 18:18 | -3.56496 | 15.53762 | 13679 ft | 321 kts | 202° |
| 2026-04-25 18:18 | -3.58535 | 15.52924 | 13293 ft | 312 kts | 202° |
| 2026-04-25 18:18 | -3.60507 | 15.52112 | 12914 ft | 304 kts | 202° |
| 2026-04-25 18:18 | -3.62437 | 15.51311 | 12539 ft | 297 kts | 202° |
| 2026-04-25 18:19 | -3.64324 | 15.50521 | 12153 ft | 291 kts | 202° |
| 2026-04-25 18:19 | -3.66175 | 15.49742 | 11772 ft | 285 kts | 203° |
| 2026-04-25 18:19 | -3.67987 | 15.48977 | 11393 ft | 280 kts | 203° |
| 2026-04-25 18:19 | -3.69769 | 15.48222 | 11015 ft | 276 kts | 203° |
| 2026-04-25 18:20 | -3.71520 | 15.47479 | 10668 ft | 270 kts | 203° |
| 2026-04-25 18:20 | -3.73229 | 15.46753 | 10378 ft | 264 kts | 203° |
| 2026-04-25 18:20 | -3.74899 | 15.46043 | 10073 ft | 258 kts | 203° |
| 2026-04-25 18:20 | -3.76536 | 15.45347 | 9762 ft | 253 kts | 203° |
| 2026-04-25 18:21 | -3.78142 | 15.44664 | 9457 ft | 249 kts | 203° |
| 2026-04-25 18:21 | -3.79725 | 15.43991 | 9153 ft | 246 kts | 203° |
| 2026-04-25 18:21 | -3.81292 | 15.43324 | 8856 ft | 244 kts | 203° |
| 2026-04-25 18:21 | -3.82854 | 15.42659 | 8550 ft | 243 kts | 203° |
| 2026-04-25 18:22 | -3.84405 | 15.41999 | 8258 ft | 242 kts | 203° |
| 2026-04-25 18:22 | -3.84927 | 15.41777 | 8157 ft | 241 kts | 203° |
| 2026-04-25 18:22 | -3.87485 | 15.40689 | 7661 ft | 240 kts | 203° |
| 2026-04-25 18:22 | -3.89018 | 15.40036 | 7364 ft | 238 kts | 203° |
| 2026-04-25 18:23 | -3.90520 | 15.39397 | 7116 ft | 232 kts | 203° |
| 2026-04-25 18:23 | -3.91986 | 15.38772 | 6861 ft | 226 kts | 203° |
| 2026-04-25 18:23 | -3.93412 | 15.38165 | 6628 ft | 218 kts | 203° |
| 2026-04-25 18:23 | -3.94777 | 15.37584 | 6384 ft | 208 kts | 203° |
| 2026-04-25 18:24 | -3.96079 | 15.37030 | 6136 ft | 199 kts | 203° |
| 2026-04-25 18:24 | -3.97324 | 15.36500 | 5880 ft | 190 kts | 203° |
| 2026-04-25 18:24 | -3.98507 | 15.35996 | 5621 ft | 184 kts | 203° |
| 2026-04-25 18:24 | -3.99670 | 15.35501 | 5385 ft | 177 kts | 203° |
| 2026-04-25 18:25 | -4.00775 | 15.35031 | 5131 ft | 173 kts | 203° |
| 2026-04-25 18:25 | -4.01873 | 15.34563 | 4870 ft | 170 kts | 203° |
| 2026-04-25 18:25 | -4.02950 | 15.34105 | 4608 ft | 167 kts | 203° |
| 2026-04-25 18:25 | -4.04017 | 15.33687 | 4346 ft | 163 kts | 194° |
| 2026-04-25 18:26 | -4.05101 | 15.33597 | 4117 ft | 149 kts | 173° |
| 2026-04-25 18:26 | -4.06074 | 15.33873 | 3911 ft | 144 kts | 154° |
| 2026-04-25 18:26 | -4.06904 | 15.34428 | 3657 ft | 143 kts | 140° |
| 2026-04-25 18:26 | -4.07592 | 15.35111 | 3400 ft | 140 kts | 130° |
| 2026-04-25 18:27 | -4.08152 | 15.35901 | 3159 ft | 139 kts | 123° |
| 2026-04-25 18:27 | -4.08699 | 15.36701 | 3100 ft | 140 kts | 126° |
| 2026-04-25 18:27 | -4.09280 | 15.37479 | 3056 ft | 139 kts | 128° |
| 2026-04-25 18:27 | -4.09881 | 15.38226 | 3059 ft | 138 kts | 130° |
| 2026-04-25 18:28 | -4.10524 | 15.38945 | 3060 ft | 139 kts | 134° |
| 2026-04-25 18:28 | -4.11212 | 15.39622 | 3049 ft | 139 kts | 143° |
| 2026-04-25 18:28 | -4.12100 | 15.39791 | 3043 ft | 134 kts | 203° |
| 2026-04-25 18:29 | -4.13531 | 15.38520 | 3054 ft | 138 kts | 223° |
| 2026-04-25 18:29 | -4.14229 | 15.37855 | 3052 ft | 139 kts | 225° |
| 2026-04-25 18:30 | -4.16171 | 15.35710 | 3056 ft | 139 kts | 229° |
| 2026-04-25 18:30 | -4.16797 | 15.34975 | 3055 ft | 139 kts | 230° |
| 2026-04-25 18:30 | -4.17420 | 15.34238 | 3056 ft | 139 kts | 230° |
| 2026-04-25 18:30 | -4.18048 | 15.33493 | 2939 ft | 141 kts | 230° |
| 2026-04-25 18:31 | -4.18678 | 15.32742 | 2764 ft | 140 kts | 230° |
| 2026-04-25 18:31 | -4.19296 | 15.32006 | 2573 ft | 137 kts | 230° |
| 2026-04-25 18:31 | -4.19907 | 15.31278 | 2403 ft | 136 kts | 230° |
| 2026-04-25 18:31 | -4.20520 | 15.30548 | 2222 ft | 137 kts | 230° |
| 2026-04-25 18:32 | -4.21132 | 15.29817 | 2042 ft | 136 kts | 230° |
| 2026-04-25 18:32 | -4.21741 | 15.29092 | 1857 ft | 136 kts | 230° |
| 2026-04-25 18:32 | -4.22340 | 15.28378 | 1681 ft | 136 kts | 230° |
| 2026-04-25 18:32 | -4.22946 | 15.27656 | 1500 ft | 135 kts | 230° |
| 2026-04-25 18:33 | -4.23524 | 15.26967 | 1329 ft | 135 kts | 230° |
| 2026-04-25 18:33 | -4.24121 | 15.26253 | 1134 ft | 136 kts | 230° |
| 2026-04-25 18:33 | -4.24718 | 15.25538 | 1040 ft | 131 kts | 230° |
| 2026-04-25 18:33 | -4.25188 | 15.24983 | 1035 ft | 76 kts | 230° |
| 2026-04-25 18:34 | -4.25444 | 15.24681 | 1033 ft | 27 kts | 230° |
| 2026-04-25 18:34 | -4.25561 | 15.24541 | 1033 ft | 25 kts | 231° |
| 2026-04-25 18:34 | -4.25669 | 15.24409 | 1033 ft | 24 kts | 230° |
| 2026-04-25 18:34 | -4.25773 | 15.24287 | 1032 ft | 23 kts | 227° |
| 2026-04-25 18:35 | -4.25919 | 15.24234 | 1030 ft | 26 kts | 161° |
| 2026-04-25 18:35 | -4.25923 | 15.24392 | 1032 ft | 31 kts | 47° |
| 2026-04-25 18:35 | -4.25767 | 15.24567 | 1033 ft | 36 kts | 51° |
| 2026-04-25 18:35 | -4.25611 | 15.24777 | 1034 ft | 40 kts | 75° |
| 2026-04-25 18:36 | -4.25670 | 15.24984 | 1035 ft | 24 kts | 85° |
| 2026-04-25 18:36 | -4.25718 | 15.25080 | 1035 ft | 15 kts | 141° |
| 2026-04-25 18:36 | -4.25742 | 15.25098 | 1035 ft | 0 kts | 144° |